Time;durP1;ratioP1;P1;durP2;ratioP2;P2;SDS_P1;SDS_P2;PMS_P1;PMS_P2;Temp;Humidity;BMP_temperature;BMP_pressure;BME280_temperature;BME280_humidity;BME280_pressure;Samples;Min_cycle;Max_cycle;Signal;HPM_P1;HPM_P2
2022/01/17 00:00:40;;;;;;;0.00;0.00;;;5.10;86.50;;;;;;4177140;28;20051;-55
2022/01/17 00:03:04;;;;;;;0.00;0.00;;;5.20;86.00;;;;;;4179867;28;20111;-55
2022/01/17 00:05:28;;;;;;;0.00;0.00;;;5.30;85.70;;;;;;4193677;28;20048;-56
2022/01/17 00:07:50;;;;;;;0.00;0.00;;;5.30;85.50;;;;;;4165946;28;20087;-56
2022/01/17 00:10:12;;;;;;;0.00;0.00;;;5.30;85.50;;;;;;4149577;28;20067;-56
2022/01/17 00:12:38;;;;;;;0.00;0.00;;;5.30;85.50;;;;;;4193887;28;20048;-57
2022/01/17 00:15:01;;;;;;;0.00;0.00;;;5.20;85.40;;;;;;4179833;28;20522;-54
2022/01/17 00:17:31;;;;;;;0.00;0.00;;;5.20;85.60;;;;;;4179845;28;20593;-54
2022/01/17 00:19:56;;;;;;;0.00;0.00;;;5.30;85.30;;;;;;4179688;28;20053;-57
2022/01/17 00:22:20;;;;;;;0.00;0.00;;;5.30;84.80;;;;;;4163717;28;20107;-56
2022/01/17 00:24:42;;;;;;;0.00;0.00;;;5.30;85.10;;;;;;4179871;28;20198;-56
2022/01/17 00:27:05;;;;;;;0.00;0.00;;;5.30;85.00;;;;;;4179498;28;20049;-56
2022/01/17 00:29:28;;;;;;;0.00;0.00;;;5.30;85.00;;;;;;4165651;28;20059;-55
2022/01/17 00:31:50;;;;;;;0.00;0.00;;;5.30;84.90;;;;;;4179100;28;20049;-56
2022/01/17 00:34:13;;;;;;;0.00;0.00;;;5.30;84.80;;;;;;4175452;28;20051;-59
2022/01/17 00:36:35;;;;;;;0.00;0.00;;;5.20;84.80;;;;;;4193380;28;20037;-59
2022/01/17 00:38:58;;;;;;;0.00;0.00;;;5.10;85.60;;;;;;4192251;28;20048;-57
2022/01/17 00:41:20;;;;;;;0.00;0.00;;;5.00;86.70;;;;;;4178898;28;20048;-57
2022/01/17 00:43:42;;;;;;;0.00;0.00;;;5.00;87.40;;;;;;4179383;28;20075;-56
2022/01/17 00:46:05;;;;;;;0.00;0.00;;;5.10;87.60;;;;;;4192801;28;20072;-55
2022/01/17 00:48:27;;;;;;;0.00;0.00;;;5.10;87.70;;;;;;4178736;28;20049;-58
2022/01/17 00:50:50;;;;;;;0.00;0.00;;;5.20;87.70;;;;;;4178777;28;20053;-56
2022/01/17 00:53:12;;;;;;;0.00;0.00;;;5.20;87.60;;;;;;4193079;28;20068;-57
2022/01/17 00:55:37;;;;;;;0.00;0.00;;;5.00;87.30;;;;;;4178843;28;20041;-54
2022/01/17 00:58:00;;;;;;;0.00;0.00;;;4.80;87.40;;;;;;4179155;28;20643;-55
2022/01/17 01:00:23;;;;;;;0.00;0.00;;;4.70;87.90;;;;;;4178658;28;20486;-56
2022/01/17 01:02:46;;;;;;;0.00;0.00;;;4.60;88.20;;;;;;4178669;28;20454;-58
2022/01/17 01:05:10;;;;;;;0.00;0.00;;;4.70;88.30;;;;;;4170618;28;20049;-57
2022/01/17 01:07:33;;;;;;;0.00;0.00;;;4.80;87.80;;;;;;4173336;28;20047;-57
2022/01/17 01:10:06;;;;;;;0.00;0.00;;;4.70;87.50;;;;;;4180061;28;20459;-58
2022/01/17 01:12:29;;;;;;;0.00;0.00;;;4.70;87.60;;;;;;4179157;28;20531;-59
2022/01/17 01:14:52;;;;;;;0.00;0.00;;;4.60;88.00;;;;;;4172896;28;20644;-59
2022/01/17 01:17:33;;;;;;;0.00;0.00;;;4.60;88.10;;;;;;4162731;28;20041;-59
2022/01/17 01:20:05;;;;;;;0.00;0.00;;;4.70;88.00;;;;;;4163296;28;20454;-58
2022/01/17 01:28:06;;;;;;;0.00;0.00;;;4.70;87.60;;;;;;4163426;28;20042;-57
2022/01/17 01:30:33;;;;;;;0.00;0.00;;;4.80;87.40;;;;;;4164394;28;20483;-58
2022/01/17 01:32:58;;;;;;;0.00;0.00;;;4.80;87.20;;;;;;4178321;28;20506;-58
2022/01/17 01:35:33;;;;;;;0.00;0.00;;;4.80;87.20;;;;;;4206620;28;20048;-56
2022/01/17 01:37:59;;;;;;;0.00;0.00;;;4.80;87.40;;;;;;4179596;28;20399;-55
2022/01/17 01:40:22;;;;;;;0.00;0.00;;;4.80;87.30;;;;;;4179172;28;20049;-57
2022/01/17 01:42:45;;;;;;;0.00;0.00;;;4.70;87.30;;;;;;4179512;28;20124;-58
2022/01/17 01:45:12;;;;;;;0.00;0.00;;;4.60;87.40;;;;;;4192130;28;20202;-58
2022/01/17 01:47:36;;;;;;;0.00;0.00;;;4.50;87.50;;;;;;4179379;28;20044;-59
2022/01/17 01:50:10;;;;;;;0.00;0.00;;;4.50;87.60;;;;;;4164031;28;20057;-60
2022/01/17 01:52:41;;;;;;;0.00;0.00;;;4.50;87.60;;;;;;4178917;28;20049;-58
2022/01/17 01:55:12;;;;;;;0.00;0.00;;;4.60;87.60;;;;;;4206335;28;20549;-57
2022/01/17 01:57:59;;;;;;;0.00;0.00;;;4.60;87.50;;;;;;4205235;28;20159;-56
2022/01/17 02:00:25;;;;;;;0.00;0.00;;;4.70;87.40;;;;;;4163900;28;20099;-57
2022/01/17 02:02:53;;;;;;;0.00;0.00;;;4.80;87.10;;;;;;4172514;28;20064;-55
2022/01/17 02:05:16;;;;;;;0.00;0.00;;;4.90;86.90;;;;;;4179323;28;20037;-58
2022/01/17 02:07:44;;;;;;;0.00;0.00;;;4.80;86.80;;;;;;4166677;28;20145;-56
2022/01/17 02:10:08;;;;;;;0.00;0.00;;;4.80;86.40;;;;;;4162648;28;20050;-59
2022/01/17 02:12:33;;;;;;;0.00;0.00;;;4.80;86.70;;;;;;4178777;28;20048;-58
2022/01/17 02:14:56;;;;;;;0.00;0.00;;;4.90;86.30;;;;;;4178154;28;20103;-57
2022/01/17 02:17:24;;;;;;;0.00;0.00;;;4.80;86.30;;;;;;4179113;28;20041;-54
2022/01/17 02:20:03;;;;;;;0.00;0.00;;;4.80;86.30;;;;;;4191924;28;20044;-59
2022/01/17 02:22:25;;;;;;;0.00;0.00;;;4.80;86.30;;;;;;4177433;28;20054;-59
2022/01/17 02:24:48;;;;;;;0.00;0.00;;;4.90;85.80;;;;;;4178095;28;20037;-59
2022/01/17 02:27:10;;;;;;;0.00;0.00;;;4.90;85.50;;;;;;4177986;28;20437;-58
2022/01/17 02:29:33;;;;;;;0.00;0.00;;;4.90;85.70;;;;;;4178029;28;20092;-59
2022/01/17 02:31:55;;;;;;;0.00;0.00;;;4.90;85.90;;;;;;4191699;28;20127;-58
2022/01/17 02:34:18;;;;;;;0.00;0.00;;;4.80;85.90;;;;;;4177548;28;20063;-56
2022/01/17 02:36:40;;;;;;;0.00;0.00;;;4.60;86.50;;;;;;4177941;28;20051;-58
2022/01/17 02:39:04;;;;;;;0.00;0.00;;;4.60;86.90;;;;;;4178133;28;20049;-59
2022/01/17 02:41:32;;;;;;;0.00;0.00;;;4.70;87.00;;;;;;4177666;28;20064;-57
2022/01/17 02:43:56;;;;;;;0.00;0.00;;;4.80;86.90;;;;;;4178125;28;20136;-57
2022/01/17 02:46:25;;;;;;;0.00;0.00;;;5.00;86.70;;;;;;4177513;28;20049;-59
2022/01/17 02:48:47;;;;;;;0.00;0.00;;;5.00;86.60;;;;;;4177978;28;20045;-56
2022/01/17 02:51:11;;;;;;;0.00;0.00;;;4.90;86.70;;;;;;4191466;28;20083;-58
2022/01/17 02:53:34;;;;;;;0.00;0.00;;;5.00;86.90;;;;;;4177854;28;20037;-56
2022/01/17 02:56:00;;;;;;;0.00;0.00;;;4.80;87.30;;;;;;4178059;28;20073;-58
2022/01/17 02:58:25;;;;;;;0.00;0.00;;;4.80;88.20;;;;;;4194425;28;20041;-59
2022/01/17 03:00:49;;;;;;;0.00;0.00;;;4.90;88.10;;;;;;4180922;28;20143;-59
2022/01/17 03:03:19;;;;;;;0.00;0.00;;;5.00;87.60;;;;;;4180749;28;20041;-59
2022/01/17 03:05:43;;;;;;;0.00;0.00;;;5.10;87.40;;;;;;4166202;28;20072;-60
2022/01/17 03:08:05;;;;;;;0.00;0.00;;;5.20;87.10;;;;;;4179938;28;20659;-58
2022/01/17 03:13:19;;;;;;;0.00;0.00;;;5.20;86.70;;;;;;4180624;28;20053;-59
2022/01/17 03:15:43;;;;;;;0.00;0.00;;;5.10;86.40;;;;;;4180811;28;20091;-58
2022/01/17 03:18:06;;;;;;;0.00;0.00;;;5.00;86.50;;;;;;4179860;28;20376;-58
2022/01/17 03:20:29;;;;;;;0.00;0.00;;;5.00;86.20;;;;;;4161856;28;20041;-58
2022/01/17 03:22:51;;;;;;;0.00;0.00;;;5.10;86.00;;;;;;4169700;28;20045;-55
2022/01/17 03:25:13;;;;;;;0.00;0.00;;;5.10;85.60;;;;;;4180420;28;20128;-57
2022/01/17 03:27:36;;;;;;;0.00;0.00;;;5.00;85.70;;;;;;4180438;28;20056;-56
2022/01/17 03:29:58;;;;;;;0.00;0.00;;;4.90;86.30;;;;;;4180306;28;20045;-56
2022/01/17 03:32:20;;;;;;;0.00;0.00;;;4.90;86.60;;;;;;4179895;28;20135;-58
2022/01/17 03:34:43;;;;;;;0.00;0.00;;;4.80;87.00;;;;;;4189989;28;20106;-59
2022/01/17 03:37:06;;;;;;;0.00;0.00;;;4.80;87.30;;;;;;4177796;28;20055;-59
2022/01/17 03:39:29;;;;;;;0.00;0.00;;;4.50;87.80;;;;;;4177737;28;20044;-57
2022/01/17 03:41:51;;;;;;;0.00;0.00;;;4.40;88.90;;;;;;4163521;28;20077;-59
2022/01/17 03:44:16;;;;;;;0.00;0.00;;;4.20;89.60;;;;;;4164621;28;20051;-59
2022/01/17 03:46:38;;;;;;;0.00;0.00;;;4.20;89.90;;;;;;4180485;28;20083;-59
2022/01/17 03:49:00;;;;;;;0.00;0.00;;;4.20;89.90;;;;;;4180251;28;20053;-58
2022/01/17 03:51:23;;;;;;;0.00;0.00;;;4.20;90.00;;;;;;4180015;28;20052;-55
2022/01/17 03:53:45;;;;;;;0.00;0.00;;;4.30;90.10;;;;;;4180153;28;20067;-56
2022/01/17 03:56:07;;;;;;;0.00;0.00;;;4.30;90.20;;;;;;4180125;28;20045;-58
2022/01/17 03:58:30;;;;;;;0.00;0.00;;;4.30;90.30;;;;;;4179673;28;20095;-58
2022/01/17 04:00:55;;;;;;;0.00;0.00;;;4.30;90.40;;;;;;4179992;28;20605;-59
2022/01/17 04:03:18;;;;;;;0.00;0.00;;;4.20;90.80;;;;;;4194049;28;20695;-58
2022/01/17 04:05:41;;;;;;;0.00;0.00;;;4.00;91.20;;;;;;4167618;28;20614;-55
2022/01/17 04:08:03;;;;;;;0.00;0.00;;;3.80;91.60;;;;;;4163222;28;20451;-57
2022/01/17 04:10:27;;;;;;;0.00;0.00;;;3.70;91.90;;;;;;4165277;28;20510;-60
2022/01/17 04:12:50;;;;;;;0.00;0.00;;;3.70;92.20;;;;;;4179737;28;20087;-59
2022/01/17 04:15:13;;;;;;;0.00;0.00;;;3.70;92.20;;;;;;4179905;28;20051;-59
2022/01/17 04:17:36;;;;;;;0.00;0.00;;;3.70;92.20;;;;;;4168258;28;20045;-59
2022/01/17 04:20:04;;;;;;;0.00;0.00;;;3.80;92.20;;;;;;4178041;28;20419;-59
2022/01/17 04:22:26;;;;;;;0.00;0.00;;;3.70;92.20;;;;;;4179081;28;20049;-59
2022/01/17 04:24:49;;;;;;;0.00;0.00;;;3.70;92.20;;;;;;4179637;28;20114;-59
2022/01/17 04:27:11;;;;;;;0.00;0.00;;;3.70;92.20;;;;;;4179712;28;20144;-56
2022/01/17 04:29:35;;;;;;;0.00;0.00;;;3.70;92.20;;;;;;4168403;28;20107;-59
2022/01/17 04:31:58;;;;;;;0.00;0.00;;;3.60;92.20;;;;;;4176519;28;20127;-57
2022/01/17 04:34:24;;;;;;;0.00;0.00;;;3.60;92.30;;;;;;4164373;28;20111;-56
2022/01/17 04:36:46;;;;;;;0.00;0.00;;;3.60;92.30;;;;;;4179385;28;20057;-57
2022/01/17 04:39:10;;;;;;;0.00;0.00;;;3.80;92.30;;;;;;4179558;28;20049;-59
2022/01/17 04:41:36;;;;;;;0.00;0.00;;;3.90;92.20;;;;;;4193234;28;20048;-58
2022/01/17 04:45:07;;;;;;;0.00;0.00;;;3.80;92.10;;;;;;4179355;28;20051;-58
2022/01/17 04:46:42;;;;;;;0.00;0.00;;;3.80;92.20;;;;;;4178803;28;20049;-59
2022/01/17 04:49:04;;;;;;;0.00;0.00;;;3.80;92.20;;;;;;4179382;28;20134;-59
2022/01/17 04:51:26;;;;;;;0.00;0.00;;;3.70;92.30;;;;;;4192937;28;20391;-59
2022/01/17 04:54:09;;;;;;;0.00;0.00;;;3.50;92.60;;;;;;4193101;28;20048;-59
2022/01/17 04:56:31;;;;;;;0.00;0.00;;;3.40;92.90;;;;;;4178760;28;20526;-59
2022/01/17 04:58:54;;;;;;;0.00;0.00;;;3.30;93.00;;;;;;4173197;28;20057;-58
2022/01/17 05:01:17;;;;;;;0.00;0.00;;;3.40;93.20;;;;;;4170627;28;20199;-60
2022/01/17 05:03:39;;;;;;;0.00;0.00;;;3.40;93.30;;;;;;4179245;28;20507;-59
2022/01/17 05:06:01;;;;;;;0.00;0.00;;;3.40;93.30;;;;;;4165255;28;20479;-59
2022/01/17 05:08:24;;;;;;;0.00;0.00;;;3.40;93.40;;;;;;4178634;28;20061;-59
2022/01/17 05:10:50;;;;;;;0.00;0.00;;;3.40;93.50;;;;;;4178986;28;20044;-58
2022/01/17 05:13:20;;;;;;;0.00;0.00;;;3.40;93.40;;;;;;4178922;28;20128;-58
2022/01/17 05:15:48;;;;;;;0.00;0.00;;;3.50;93.40;;;;;;4179244;28;20546;-56
2022/01/17 05:20:41;;;;;;;0.00;0.00;;;3.50;93.40;;;;;;4192323;28;20140;-59
2022/01/17 05:23:03;;;;;;;0.00;0.00;;;3.50;93.60;;;;;;4179014;28;20051;-59
2022/01/17 05:25:26;;;;;;;0.00;0.00;;;3.60;93.60;;;;;;4179114;28;20136;-59
2022/01/17 05:27:48;;;;;;;0.00;0.00;;;3.70;93.50;;;;;;4178772;28;20061;-59
2022/01/17 05:30:14;;;;;;;0.00;0.00;;;3.70;93.50;;;;;;4179047;28;20106;-57
2022/01/17 05:32:37;;;;;;;0.00;0.00;;;3.70;93.40;;;;;;4178570;28;20055;-57
2022/01/17 05:34:59;;;;;;;0.00;0.00;;;3.80;93.50;;;;;;4178932;28;20091;-58
2022/01/17 05:37:22;;;;;;;0.00;0.00;;;3.90;93.40;;;;;;4179032;28;20045;-57
2022/01/17 05:39:44;;;;;;;0.00;0.00;;;4.00;93.30;;;;;;4178803;28;20065;-58
2022/01/17 05:42:08;;;;;;;0.00;0.00;;;4.10;93.10;;;;;;4162586;28;20049;-57
2022/01/17 05:44:31;;;;;;;0.00;0.00;;;4.00;93.10;;;;;;4162211;28;20048;-57
2022/01/17 05:46:53;;;;;;;0.00;0.00;;;3.90;93.10;;;;;;4168274;28;20040;-58
2022/01/17 05:49:16;;;;;;;0.00;0.00;;;3.90;93.20;;;;;;4192759;28;20447;-59
2022/01/17 05:51:38;;;;;;;0.00;0.00;;;3.90;93.20;;;;;;4192399;28;20063;-58
2022/01/17 05:54:01;;;;;;;0.00;0.00;;;3.90;93.20;;;;;;4163556;28;20132;-59
2022/01/17 05:56:23;;;;;;;0.00;0.00;;;4.00;93.20;;;;;;4178355;28;20048;-59
2022/01/17 05:58:45;;;;;;;0.00;0.00;;;4.10;93.20;;;;;;4164877;28;20053;-58
2022/01/17 06:01:09;;;;;;;0.00;0.00;;;4.10;93.00;;;;;;4178248;28;20052;-59
2022/01/17 06:03:32;;;;;;;0.00;0.00;;;4.10;92.90;;;;;;4178665;28;20045;-59
2022/01/17 06:05:55;;;;;;;0.00;0.00;;;4.10;92.90;;;;;;4178864;28;20430;-58
2022/01/17 06:08:18;;;;;;;0.00;0.00;;;4.10;92.90;;;;;;4161476;28;20053;-60
2022/01/17 06:10:40;;;;;;;0.00;0.00;;;4.20;92.80;;;;;;4161801;28;20042;-60
2022/01/17 06:13:03;;;;;;;0.00;0.00;;;4.20;92.80;;;;;;4161813;28;20698;-58
2022/01/17 06:15:25;;;;;;;0.00;0.00;;;4.20;92.70;;;;;;4171924;28;20045;-58
2022/01/17 06:17:48;;;;;;;0.00;0.00;;;4.20;92.70;;;;;;4192299;28;20049;-57
2022/01/17 06:20:11;;;;;;;0.00;0.00;;;4.00;92.80;;;;;;4178314;28;20049;-56
2022/01/17 06:22:33;;;;;;;0.00;0.00;;;3.90;93.00;;;;;;4177870;28;20044;-57
2022/01/17 06:24:57;;;;;;;0.00;0.00;;;3.90;93.10;;;;;;4178387;28;20049;-57
2022/01/17 06:27:20;;;;;;;0.00;0.00;;;3.90;93.10;;;;;;4178091;28;20099;-56
2022/01/17 06:29:42;;;;;;;0.00;0.00;;;4.00;93.20;;;;;;4178350;28;20060;-57
2022/01/17 06:32:05;;;;;;;0.00;0.00;;;4.00;93.10;;;;;;4180702;28;20048;-57
2022/01/17 06:34:47;;;;;;;0.00;0.00;;;3.90;93.00;;;;;;4181248;28;20075;-57
2022/01/17 06:37:10;;;;;;;0.00;0.00;;;3.90;93.10;;;;;;4181546;28;20040;-58
2022/01/17 06:39:33;;;;;;;0.00;0.00;;;3.90;93.20;;;;;;4181413;28;20094;-56
2022/01/17 06:41:56;;;;;;;0.00;0.00;;;3.90;93.20;;;;;;4180908;28;20049;-58
2022/01/17 06:44:18;;;;;;;0.00;0.00;;;3.90;93.30;;;;;;4181090;28;20049;-57
2022/01/17 06:46:41;;;;;;;0.00;0.00;;;3.90;93.30;;;;;;4181498;28;20417;-58
2022/01/17 06:49:04;;;;;;;0.00;0.00;;;4.00;93.30;;;;;;4181503;28;20672;-57
2022/01/17 06:51:26;;;;;;;0.00;0.00;;;4.00;93.20;;;;;;4195159;28;20083;-58
2022/01/17 06:53:50;;;;;;;0.00;0.00;;;4.10;93.10;;;;;;4181621;28;20068;-56
2022/01/17 06:56:13;;;;;;;0.00;0.00;;;4.20;93.00;;;;;;4180757;28;20045;-58
2022/01/17 06:58:36;;;;;;;0.00;0.00;;;4.20;92.90;;;;;;4164764;28;20080;-55
2022/01/17 07:00:59;;;;;;;0.00;0.00;;;4.30;92.90;;;;;;4164433;28;20107;-58
2022/01/17 07:03:22;;;;;;;0.00;0.00;;;4.40;92.80;;;;;;4164560;28;20132;-58
2022/01/17 07:05:44;;;;;;;0.00;0.00;;;4.40;92.70;;;;;;4164786;28;20099;-58
2022/01/17 07:08:07;;;;;;;0.00;0.00;;;4.50;92.60;;;;;;4178548;28;20060;-57
2022/01/17 07:10:29;;;;;;;0.00;0.00;;;4.50;92.60;;;;;;4180756;28;20110;-58
2022/01/17 07:12:51;;;;;;;0.00;0.00;;;4.40;92.70;;;;;;4181044;28;20048;-58
2022/01/17 07:15:14;;;;;;;0.00;0.00;;;4.50;92.70;;;;;;4181061;28;20522;-58
2022/01/17 07:17:36;;;;;;;0.00;0.00;;;4.50;92.60;;;;;;4180876;28;20048;-57
2022/01/17 07:19:59;;;;;;;0.00;0.00;;;4.60;92.70;;;;;;4180954;28;20088;-58
2022/01/17 07:22:21;;;;;;;0.00;0.00;;;4.70;92.60;;;;;;4180383;28;20057;-54
2022/01/17 07:24:47;;;;;;;0.00;0.00;;;4.80;92.40;;;;;;4167493;28;20052;-56
2022/01/17 07:27:09;;;;;;;0.00;0.00;;;4.80;92.30;;;;;;4180753;28;20041;-57
2022/01/17 07:29:32;;;;;;;0.00;0.00;;;4.90;92.20;;;;;;4180862;28;20045;-59
2022/01/17 07:31:55;;;;;;;0.00;0.00;;;4.90;92.20;;;;;;4153386;28;20076;-59
2022/01/17 07:34:17;;;;;;;0.00;0.00;;;4.90;92.20;;;;;;4180176;28;20057;-58
2022/01/17 07:36:40;;;;;;;0.00;0.00;;;4.80;92.10;;;;;;4180538;28;20041;-58
2022/01/17 07:39:03;;;;;;;0.00;0.00;;;4.70;92.30;;;;;;4180606;28;20048;-59
2022/01/17 07:41:27;;;;;;;0.00;0.00;;;4.80;92.30;;;;;;4170157;28;20053;-59
2022/01/17 07:43:53;;;;;;;0.00;0.00;;;4.90;92.10;;;;;;4176915;28;20044;-58
2022/01/17 07:46:24;;;;;;;0.00;0.00;;;4.90;92.00;;;;;;4194237;28;20049;-58
2022/01/17 07:51:27;;;;;;;0.00;0.00;;;4.90;91.80;;;;;;4180341;28;20045;-59
2022/01/17 07:53:50;;;;;;;0.00;0.00;;;5.00;91.70;;;;;;4180565;28;20041;-58
2022/01/17 07:56:12;;;;;;;0.00;0.00;;;5.00;91.70;;;;;;4193818;28;20091;-59
2022/01/17 07:58:35;;;;;;;0.00;0.00;;;5.00;91.60;;;;;;4180453;28;20071;-58
2022/01/17 08:00:57;;;;;;;0.00;0.00;;;5.00;91.50;;;;;;4179954;28;20139;-58
2022/01/17 08:03:21;;;;;;;0.00;0.00;;;5.10;91.50;;;;;;4180288;28;20064;-57
2022/01/17 08:05:44;;;;;;;0.00;0.00;;;5.10;91.50;;;;;;4180240;28;20045;-57
2022/01/17 08:08:06;;;;;;;0.00;0.00;;;5.10;91.40;;;;;;4180194;28;20530;-59
2022/01/17 08:10:30;;;;;;;0.00;0.00;;;5.10;91.30;;;;;;4179795;28;20060;-59
2022/01/17 08:12:52;;;;;;;0.00;0.00;;;5.10;91.20;;;;;;4180265;28;20045;-59
2022/01/17 08:15:16;;;;;;;0.00;0.00;;;5.00;91.20;;;;;;4180155;28;20442;-55
2022/01/17 08:17:39;;;;;;;0.00;0.00;;;5.00;91.20;;;;;;4193999;28;20102;-59
2022/01/17 08:20:02;;;;;;;0.00;0.00;;;5.00;91.20;;;;;;4193874;28;20082;-59
2022/01/17 08:22:24;;;;;;;0.00;0.00;;;5.10;91.30;;;;;;4165540;28;20064;-58
2022/01/17 08:24:46;;;;;;;0.00;0.00;;;5.20;91.20;;;;;;4180116;28;20045;-59
2022/01/17 08:27:09;;;;;;;0.00;0.00;;;5.20;91.10;;;;;;4166158;28;20135;-59
2022/01/17 08:29:33;;;;;;;0.00;0.00;;;5.20;91.10;;;;;;4193740;28;20135;-58
2022/01/17 08:31:58;;;;;;;0.00;0.00;;;5.20;91.10;;;;;;4152037;28;20072;-56
2022/01/17 08:34:22;;;;;;;0.00;0.00;;;5.20;91.10;;;;;;4165872;28;20087;-53
2022/01/17 08:36:47;;;;;;;0.00;0.00;;;5.20;91.00;;;;;;4179830;28;20132;-59
2022/01/17 08:39:11;;;;;;;0.00;0.00;;;5.20;91.10;;;;;;4179483;28;20055;-57
2022/01/17 08:41:34;;;;;;;0.00;0.00;;;5.20;91.00;;;;;;4179325;28;20055;-60
2022/01/17 08:43:59;;;;;;;0.00;0.00;;;5.20;91.20;;;;;;4179605;28;20049;-60
2022/01/17 08:46:22;;;;;;;0.00;0.00;;;5.30;90.90;;;;;;4179382;28;20500;-60
2022/01/17 08:48:47;;;;;;;0.00;0.00;;;5.30;90.80;;;;;;4179408;28;20083;-59
2022/01/17 08:51:09;;;;;;;0.00;0.00;;;5.40;90.80;;;;;;4165326;28;20068;-58
2022/01/17 08:53:32;;;;;;;0.00;0.00;;;5.30;90.80;;;;;;4179175;28;20130;-57
2022/01/17 08:55:59;;;;;;;0.00;0.00;;;5.30;90.80;;;;;;4178016;28;20053;-55
2022/01/17 08:58:23;;;;;;;0.00;0.00;;;5.30;90.80;;;;;;4178557;28;20506;-59
2022/01/17 09:00:45;;;;;;;0.00;0.00;;;5.40;90.70;;;;;;4188013;28;20047;-56
2022/01/17 09:03:15;;;;;;;0.00;0.00;;;5.60;90.70;;;;;;4162705;28;20546;-59
2022/01/17 09:05:38;;;;;;;0.00;0.00;;;5.60;90.60;;;;;;4162540;28;20053;-55
2022/01/17 09:08:02;;;;;;;0.00;0.00;;;5.70;90.60;;;;;;4162703;28;20049;-52
2022/01/17 09:10:25;;;;;;;0.00;0.00;;;5.70;90.40;;;;;;4164289;28;20458;-60
2022/01/17 09:12:49;;;;;;;0.00;0.00;;;5.90;90.50;;;;;;4193104;28;20044;-59
2022/01/17 09:15:11;;;;;;;0.00;0.00;;;5.90;90.30;;;;;;4193032;28;20051;-59
2022/01/17 09:17:33;;;;;;;0.00;0.00;;;5.70;90.30;;;;;;4167812;28;20124;-58
2022/01/17 09:19:56;;;;;;;0.00;0.00;;;5.70;90.40;;;;;;4176393;28;20088;-56
2022/01/17 09:22:20;;;;;;;0.00;0.00;;;5.80;90.40;;;;;;4162824;28;20041;-59
2022/01/17 09:24:42;;;;;;;0.00;0.00;;;6.00;90.30;;;;;;4179310;28;20617;-60
2022/01/17 09:27:06;;;;;;;0.00;0.00;;;6.00;90.20;;;;;;4178979;28;20045;-58
2022/01/17 09:29:30;;;;;;;0.00;0.00;;;6.00;90.00;;;;;;4167956;28;20133;-60
2022/01/17 09:31:53;;;;;;;0.00;0.00;;;5.90;90.30;;;;;;4176250;28;20053;-53
2022/01/17 09:34:16;;;;;;;0.00;0.00;;;5.90;90.40;;;;;;4177869;28;20136;-59
2022/01/17 09:36:38;;;;;;;0.00;0.00;;;5.90;90.50;;;;;;4176206;28;20048;-57
2022/01/17 09:39:04;;;;;;;0.00;0.00;;;5.70;90.70;;;;;;4176101;28;20049;-60
2022/01/17 09:41:27;;;;;;;0.00;0.00;;;5.70;90.80;;;;;;4172405;28;20056;-53
2022/01/17 09:43:51;;;;;;;0.00;0.00;;;5.80;90.90;;;;;;4178765;28;20568;-59
2022/01/17 09:46:15;;;;;;;0.00;0.00;;;6.00;90.90;;;;;;4178455;28;20076;-60
2022/01/17 09:48:45;;;;;;;0.00;0.00;;;6.50;90.80;;;;;;4178986;28;20041;-60
2022/01/17 09:51:38;;;;;;;0.00;0.00;;;7.20;90.20;;;;;;4178372;28;20052;-59
2022/01/17 09:54:00;;;;;;;0.00;0.00;;;7.60;88.40;;;;;;4163644;28;20085;-61
2022/01/17 09:56:25;;;;;;;0.00;0.00;;;8.00;87.30;;;;;;4161566;28;20132;-59
2022/01/17 09:58:47;;;;;;;0.00;0.00;;;8.80;87.10;;;;;;4162017;28;20041;-60
2022/01/17 10:01:10;;;;;;;0.00;0.00;;;9.70;84.80;;;;;;4161888;28;20123;-60
2022/01/17 10:03:34;;;;;;;0.00;0.00;;;10.30;82.30;;;;;;4162022;28;20051;-57
2022/01/17 10:05:57;;;;;;;0.00;0.00;;;10.70;81.20;;;;;;4162661;28;20132;-60
2022/01/17 10:08:20;;;;;;;0.00;0.00;;;11.40;80.70;;;;;;4178024;28;20083;-60
2022/01/17 10:10:46;;;;;;;0.00;0.00;;;12.00;78.00;;;;;;4164625;28;20517;-60
2022/01/17 10:13:20;;;;;;;0.00;0.00;;;12.20;74.60;;;;;;4164677;28;20045;-58
2022/01/17 10:15:58;;;;;;;0.00;0.00;;;12.50;74.90;;;;;;4178216;28;20052;-58
2022/01/17 10:18:25;;;;;;;0.00;0.00;;;13.00;73.50;;;;;;4176361;28;20103;-57
2022/01/17 10:20:53;;;;;;;0.00;0.00;;;13.30;71.70;;;;;;4147963;28;20050;-59
2022/01/17 10:23:28;;;;;;;0.00;0.00;;;13.40;71.10;;;;;;4175638;28;20119;-59
2022/01/17 10:26:08;;;;;;;0.00;0.00;;;13.90;70.30;;;;;;4175528;28;20486;-59
2022/01/17 10:36:43;;;;;;;0.00;0.00;;;15.30;64.90;;;;;;4177805;28;20045;-59
2022/01/17 10:39:07;;;;;;;0.00;0.00;;;15.80;63.20;;;;;;4178002;28;20107;-59
2022/01/17 10:41:32;;;;;;;0.00;0.00;;;16.10;61.40;;;;;;4177767;28;20041;-59
2022/01/17 10:43:54;;;;;;;0.00;0.00;;;16.40;60.20;;;;;;4177944;28;20081;-60
2022/01/17 10:46:22;;;;;;;0.00;0.00;;;17.00;59.30;;;;;;4190989;28;20045;-58
2022/01/17 10:48:47;;;;;;;0.00;0.00;;;17.40;57.20;;;;;;4163606;28;20067;-58
2022/01/17 10:51:11;;;;;;;0.00;0.00;;;16.80;56.90;;;;;;4169614;28;20075;-59
2022/01/17 10:53:34;;;;;;;0.00;0.00;;;17.20;56.80;;;;;;4178040;28;20087;-59
2022/01/17 10:55:58;;;;;;;0.00;0.00;;;17.60;56.00;;;;;;4178102;28;20037;-59
2022/01/17 10:58:25;;;;;;;0.00;0.00;;;17.30;54.90;;;;;;4164062;28;20049;-59
2022/01/17 11:00:51;;;;;;;0.00;0.00;;;17.50;53.80;;;;;;4177947;28;20044;-59
2022/01/17 11:03:21;;;;;;;0.00;0.00;;;16.00;54.10;;;;;;4177787;28;20048;-59
2022/01/17 11:05:52;;;;;;;0.00;0.00;;;16.70;55.00;;;;;;4191942;28;20135;-59
2022/01/17 11:08:18;;;;;;;0.00;0.00;;;16.80;52.80;;;;;;4177323;28;20075;-59
2022/01/17 11:10:46;;;;;;;0.00;0.00;;;17.00;52.40;;;;;;4177669;28;20548;-58
2022/01/17 11:13:12;;;;;;;0.00;0.00;;;17.30;51.20;;;;;;4177928;28;20131;-59
2022/01/17 11:15:37;;;;;;;0.00;0.00;;;17.10;50.10;;;;;;4177827;28;20048;-55
2022/01/17 11:18:20;;;;;;;0.00;0.00;;;16.80;49.80;;;;;;4164722;28;20042;-56
2022/01/17 11:20:43;;;;;;;0.00;0.00;;;16.40;51.80;;;;;;4180668;28;20147;-60
2022/01/17 11:23:05;;;;;;;0.00;0.00;;;16.00;53.30;;;;;;4181059;28;20049;-57
2022/01/17 11:25:36;;;;;;;0.00;0.00;;;15.80;53.70;;;;;;4180918;28;20204;-56
2022/01/17 11:28:00;;;;;;;0.00;0.00;;;15.80;54.00;;;;;;4180768;28;20048;-57
2022/01/17 11:30:25;;;;;;;0.00;0.00;;;15.80;54.10;;;;;;4180355;28;20131;-58
2022/01/17 11:32:51;;;;;;;0.00;0.00;;;15.90;53.80;;;;;;4180834;28;20045;-56
2022/01/17 11:35:16;;;;;;;0.00;0.00;;;16.00;54.10;;;;;;4194887;28;20044;-55
2022/01/17 11:37:42;;;;;;;0.00;0.00;;;16.60;53.20;;;;;;4180740;28;20434;-57
2022/01/17 11:40:09;;;;;;;0.00;0.00;;;17.00;51.90;;;;;;4166815;28;20041;-58
2022/01/17 11:42:46;;;;;;;0.00;0.00;;;17.00;51.60;;;;;;4180234;28;20053;-59
2022/01/17 11:45:24;;;;;;;0.00;0.00;;;16.70;51.50;;;;;;4172713;28;20053;-55
2022/01/17 11:47:50;;;;;;;0.00;0.00;;;16.70;51.00;;;;;;4177990;28;20537;-51
2022/01/17 11:50:28;;;;;;;0.00;0.00;;;15.50;52.00;;;;;;4157673;28;20045;-54
2022/01/17 11:52:50;;;;;;;0.00;0.00;;;14.20;54.40;;;;;;4179757;28;20136;-51
2022/01/17 11:55:33;;;;;;;0.00;0.00;;;12.80;57.00;;;;;;4193755;28;20087;-56
2022/01/17 11:58:19;;;;;;;0.00;0.00;;;12.00;59.00;;;;;;4173750;28;20084;-53
2022/01/17 12:00:41;;;;;;;0.00;0.00;;;11.30;61.10;;;;;;4170770;28;20132;-53
2022/01/17 12:03:22;;;;;;;0.00;0.00;;;10.70;63.10;;;;;;4163814;28;20046;-53
2022/01/17 12:05:44;;;;;;;0.00;0.00;;;10.50;64.70;;;;;;4163751;28;20056;-50
2022/01/17 12:08:09;;;;;;;0.00;0.00;;;10.50;64.90;;;;;;4163647;28;20478;-59
2022/01/17 12:10:41;;;;;;;0.00;0.00;;;10.50;65.40;;;;;;4149597;28;20133;-55
2022/01/17 12:13:14;;;;;;;0.00;0.00;;;10.30;66.00;;;;;;4149876;28;20103;-53
2022/01/17 12:16:09;;;;;;;0.00;0.00;;;9.90;67.20;;;;;;4163676;28;20053;-55
2022/01/17 12:18:59;;;;;;;0.00;0.00;;;9.80;68.30;;;;;;4163266;28;20049;-52
2022/01/17 12:21:24;;;;;;;0.00;0.00;;;9.70;69.00;;;;;;4163103;28;20055;-51
2022/01/17 12:23:48;;;;;;;0.00;0.00;;;9.50;69.80;;;;;;4168663;28;20064;-50
2022/01/17 12:26:40;;;;;;;0.00;0.00;;;9.40;70.80;;;;;;4179875;28;20045;-55
2022/01/17 12:29:02;;;;;;;0.00;0.00;;;9.30;71.20;;;;;;4099711;28;20504;-57
2022/01/17 12:31:51;;;;;;;0.00;0.00;;;9.10;71.40;;;;;;4108116;28;20098;-58
2022/01/17 12:34:23;;;;;;;0.00;0.00;;;8.70;72.70;;;;;;4083293;29;20063;-53
2022/01/17 12:36:47;;;;;;;0.00;0.00;;;8.60;73.20;;;;;;4071082;29;20059;-56
2022/01/17 12:39:19;;;;;;;0.00;0.00;;;8.60;73.40;;;;;;4084258;29;20596;-54
2022/01/17 12:41:44;;;;;;;0.00;0.00;;;8.80;73.00;;;;;;4097313;29;20055;-54
2022/01/17 12:44:13;;;;;;;0.00;0.00;;;8.90;72.50;;;;;;4083990;29;20055;-54
2022/01/17 12:46:36;;;;;;;0.00;0.00;;;9.00;72.50;;;;;;4083669;29;20123;-56
2022/01/17 12:49:01;;;;;;;0.00;0.00;;;9.20;72.50;;;;;;4071117;29;20052;-51
2022/01/17 12:51:25;;;;;;;0.00;0.00;;;9.30;72.20;;;;;;4097139;28;20147;-51
2022/01/17 12:53:50;;;;;;;0.00;0.00;;;9.00;72.50;;;;;;4068442;29;20156;-48
2022/01/17 12:56:14;;;;;;;0.00;0.00;;;8.90;73.90;;;;;;4067474;29;20116;-55
2022/01/17 12:58:38;;;;;;;0.00;0.00;;;9.10;73.90;;;;;;4083567;29;20575;-53
2022/01/17 13:01:06;;;;;;;0.00;0.00;;;9.20;73.90;;;;;;4095561;29;20078;-57
2022/01/17 13:03:33;;;;;;;0.00;0.00;;;9.20;73.50;;;;;;4083575;29;20055;-57
2022/01/17 13:05:56;;;;;;;0.00;0.00;;;8.70;75.00;;;;;;4118927;28;20516;-58